Git R Dun — WDH2486 — position and weather

sailwx.info

Track history (hours):
 
Tides and Currents Weather Stations Pressure Air Temp Water Temp Dewpoint Dewpoint Depression Visibility Wind Speed Wind Dir Waves Ship Positions

Git R Dun

Owner: Tarabochia, Ryan J, Astoria, OR. More information available from US FCC via Universal Licensing System and Coast Guard Vessel Documentation Center.

Last reported at 2018-May-17 20:11 UTC. Time now 2018-May-22 10:14 UTC.
Position N 46°06' W 124°02'.

Length 12 m.

MMSI: 367598080.

Date/timePositionNaut miles runAvg speedWind from/ knotsBaromVisibWave heightAir tempDewpointWater temp
2018-May-17 20:11N 46°06' W 124°02'1 3.0
2018-May-17 20:00N 46°07' W 124°02'1 2.8
2018-May-17 19:30N 46°08' W 124°04'2 3.2
2018-May-17 19:00N 46°09' W 124°05'1 2.8
2018-May-17 18:30N 46°10' W 124°06'1 2.0
2018-May-17 18:00N 46°11' W 124°06'2 3.2
2018-May-17 17:30N 46°13' W 124°06'4 7.4
2018-May-17 17:00N 46°15' W 124°01'5 9.5
2018-May-17 16:30N 46°12' W 123°56'2 3.3
2018-May-17 15:52N 46°10' W 123°55'0 0.0
2018-May-17 15:28N 46°10' W 123°55'0 0.0
2018-May-17 14:55N 46°10' W 123°55'0 0.0
2018-May-17 14:28N 46°10' W 123°55'0 0.0
2018-May-17 13:58N 46°10' W 123°55'0 0.0
2018-May-17 13:19N 46°10' W 123°55'0 0.0
2018-May-17 12:58N 46°10' W 123°55'0 0.0
2018-May-17 12:28N 46°10' W 123°55'0 0.0
2018-May-17 11:55N 46°10' W 123°55'0 0.0
2018-May-17 11:28N 46°10' W 123°55'0 0.0
2018-May-17 10:58N 46°10' W 123°55'0 0.0
2018-May-17 10:25N 46°10' W 123°55'0 0.0
2018-May-17 09:58N 46°10' W 123°55'0 0.0
2018-May-17 09:28N 46°10' W 123°55'0 0.0
2018-May-17 08:58N 46°10' W 123°55'0 0.0
2018-May-17 08:28N 46°10' W 123°55'0 0.0
2018-May-17 07:55N 46°10' W 123°55'0 0.0
2018-May-17 07:22N 46°10' W 123°55'0 0.0
2018-May-17 06:58N 46°10' W 123°55'0 0.0
2018-May-17 06:28N 46°10' W 123°55'0 0.0
2018-May-17 05:58N 46°10' W 123°55'0 0.0
2018-May-17 05:16N 46°10' W 123°55'0 0.0
2018-May-17 04:58N 46°10' W 123°55'0 0.0
2018-May-17 04:28N 46°10' W 123°55'0 0.0
2018-May-17 03:58N 46°10' W 123°55'0 0.0
2018-May-17 03:28N 46°10' W 123°55'0 0.0
2018-May-17 02:58N 46°10' W 123°55'0 0.0
2018-May-17 02:13N 46°10' W 123°55'0 0.0
2018-May-17 01:58N 46°10' W 123°55'0 0.0
2018-May-17 01:28N 46°10' W 123°55'0 0.0
2018-May-17 00:58N 46°10' W 123°55'0 0.0
2018-May-16 23:55N 46°10' W 123°55'0 0.0
2018-May-16 23:28N 46°10' W 123°55'0 0.0
2018-May-16 22:58N 46°10' W 123°55'0 0.0
2018-May-16 22:28N 46°10' W 123°55'0 0.0
2018-May-16 21:58N 46°10' W 123°55'0 0.0
2018-May-16 21:28N 46°10' W 123°55'0 0.0
2018-May-16 20:58N 46°10' W 123°55'0 0.0
2018-May-16 20:25N 46°10' W 123°55'0 0.0
2018-May-16 19:55N 46°10' W 123°55'0 0.0
2018-May-16 19:28N 46°10' W 123°55'0 0.0
2018-May-16 18:55N 46°10' W 123°55'0 0.0
2018-May-16 18:25N 46°10' W 123°55'0 0.0
2018-May-16 17:58N 46°10' W 123°55'0 0.0
2018-May-16 17:28N 46°10' W 123°55'0 0.0
2018-May-16 16:55N 46°10' W 123°55'0 0.0
2018-May-16 16:28N 46°10' W 123°55'0 0.0
2018-May-16 15:58N 46°10' W 123°55'0 0.0
2018-May-16 15:28N 46°10' W 123°55'0 0.0
2018-May-16 14:58N 46°10' W 123°55'0 0.0
2018-May-16 14:28N 46°10' W 123°55'0 0.0
2018-May-16 13:58N 46°10' W 123°55'0 0.0
2018-May-16 13:28N 46°10' W 123°55'0 0.0
2018-May-16 12:58N 46°10' W 123°55'0 0.0
2018-May-16 12:28N 46°10' W 123°55'0 0.0
2018-May-16 11:55N 46°10' W 123°55'0 0.0
2018-May-16 11:28N 46°10' W 123°55'0 0.0
2018-May-16 10:58N 46°10' W 123°55'0 0.0
2018-May-16 10:28N 46°10' W 123°55'0 0.0
2018-May-16 09:58N 46°10' W 123°55'0 0.0
2018-May-16 09:28N 46°10' W 123°55'0 0.0
2018-May-16 08:58N 46°10' W 123°55'0 0.0
2018-May-16 08:25N 46°10' W 123°55'0 0.0
2018-May-16 07:58N 46°10' W 123°55'0 0.0
2018-May-16 07:28N 46°10' W 123°55'0 0.0
2018-May-16 06:56N 46°10' W 123°55'0 0.0
2018-May-16 06:28N 46°10' W 123°55'0 0.0
2018-May-16 05:58N 46°10' W 123°55'0 0.0
2018-May-16 05:25N 46°10' W 123°55'0 0.0
2018-May-16 04:58N 46°10' W 123°55'0 0.0
2018-May-16 04:28N 46°10' W 123°55'0 0.0
2018-May-16 03:58N 46°10' W 123°55'0 0.0
2018-May-16 03:25N 46°10' W 123°55'0 0.0
2018-May-16 02:55N 46°10' W 123°55'0 0.0
2018-May-16 02:28N 46°10' W 123°55'0 0.0
2018-May-16 01:55N 46°10' W 123°55'0 0.0
2018-May-16 01:28N 46°10' W 123°55'0 0.0
2018-May-16 00:58N 46°10' W 123°55'0 0.0
2018-May-16 00:28N 46°10' W 123°55'0 0.0
2018-May-15 23:58N 46°10' W 123°55'0 0.0
2018-May-15 23:16N 46°10' W 123°55'0 0.0
2018-May-15 22:58N 46°10' W 123°55'0 0.0
2018-May-15 22:28N 46°10' W 123°55'0 0.0
2018-May-15 21:34N 46°10' W 123°55'0 0.0
2018-May-15 21:16N 46°10' W 123°55'0 0.0
2018-May-15 20:58N 46°10' W 123°55'0 0.0
2018-May-15 20:28N 46°10' W 123°55'0 0.0
2018-May-15 19:58N 46°10' W 123°55'0 0.0
2018-May-15 19:25N 46°10' W 123°55'0 0.0
2018-May-15 18:55N 46°10' W 123°55'0 0.0
2018-May-15 18:28N 46°10' W 123°55'0 0.0
2018-May-15 17:46N 46°10' W 123°55'0 0.0
2018-May-15 17:28N 46°10' W 123°55'0 0.0
2018-May-15 16:58N 46°10' W 123°55'0 0.0
2018-May-15 16:13N 46°10' W 123°55'0 0.0
2018-May-15 15:58N 46°10' W 123°55'0 0.0
2018-May-15 15:22N 46°10' W 123°55'0 0.0
2018-May-15 14:58N 46°10' W 123°55'0 0.0
2018-May-15 14:28N 46°10' W 123°55'0 0.0
2018-May-15 13:58N 46°10' W 123°55'0 0.0
2018-May-15 13:28N 46°10' W 123°55'0 0.0
2018-May-15 12:58N 46°10' W 123°55'0 0.0
2018-May-15 12:16N 46°10' W 123°55'0 0.0
2018-May-15 11:58N 46°10' W 123°55'0 0.0
2018-May-15 11:28N 46°10' W 123°55'0 0.0
2018-May-15 10:58N 46°10' W 123°55'0 0.0
2018-May-15 10:28N 46°10' W 123°55'0 0.0
2018-May-15 09:58N 46°10' W 123°55'0 0.0
2018-May-15 09:04N 46°10' W 123°55'0 0.0
2018-May-15 08:58N 46°10' W 123°55'0 0.0
2018-May-15 08:22N 46°10' W 123°55'0 0.0
2018-May-15 07:58N 46°10' W 123°55'0 0.0
2018-May-15 07:28N 46°10' W 123°55'0 0.0
2018-May-15 06:43N 46°10' W 123°55'0 0.0
2018-May-15 06:28N 46°10' W 123°55'0 0.0
2018-May-15 05:58N 46°10' W 123°55'0 0.0
2018-May-15 05:28N 46°10' W 123°55'0 0.0
2018-May-15 04:58N 46°10' W 123°55'0 0.0
2018-May-15 04:10N 46°10' W 123°55'0 0.0
2018-May-15 03:28N 46°10' W 123°55'0 0.0
2018-May-15 02:55N 46°10' W 123°55'0 0.0
2018-May-15 02:28N 46°10' W 123°55'0 0.0
2018-May-15 01:58N 46°10' W 123°55'0 0.0
2018-May-15 01:28N 46°10' W 123°55'0 0.0
2018-May-15 00:58N 46°10' W 123°55'0 0.0
2018-May-15 00:28N 46°10' W 123°55'0 0.0
2018-May-14 23:55N 46°10' W 123°55'0 0.0
2018-May-14 23:28N 46°10' W 123°55'0 0.0
2018-May-14 22:52N 46°10' W 123°55'0 0.0
2018-May-14 22:28N 46°10' W 123°55'0 0.0
2018-May-14 21:43N 46°10' W 123°55'0 0.0
2018-May-14 21:28N 46°10' W 123°55'0 0.0
2018-May-14 20:55N 46°10' W 123°55'0 0.0
2018-May-14 20:28N 46°10' W 123°55'0 0.0
2018-May-14 19:49N 46°10' W 123°55'0 0.0
2018-May-14 19:28N 46°10' W 123°55'0 0.0
2018-May-14 18:58N 46°10' W 123°55'0 0.0
2018-May-14 18:28N 46°10' W 123°55'0 0.0
2018-May-14 17:55N 46°10' W 123°55'0 0.0
2018-May-14 17:27N 46°10' W 123°55'0 0.0
2018-May-14 16:58N 46°10' W 123°55'0 0.0
2018-May-14 16:28N 46°10' W 123°55'0 0.0
2018-May-14 15:58N 46°10' W 123°55'0 0.0
2018-May-14 15:28N 46°10' W 123°55'0 0.0
2018-May-14 14:58N 46°10' W 123°55'0 0.0
2018-May-14 14:19N 46°10' W 123°55'0 0.0
2018-May-14 13:58N 46°10' W 123°55'0 0.0
2018-May-14 13:25N 46°10' W 123°55'0 0.0
2018-May-14 12:58N 46°10' W 123°55'0 0.0
2018-May-14 12:28N 46°10' W 123°55'0 0.0
2018-May-14 11:55N 46°10' W 123°55'0 0.0
2018-May-14 11:28N 46°10' W 123°55'0 0.0
2018-May-14 10:58N 46°10' W 123°55'0 0.0
2018-May-14 10:28N 46°10' W 123°55'0 0.0
2018-May-14 09:58N 46°10' W 123°55'0 0.0
2018-May-14 09:28N 46°10' W 123°55'0 0.0
2018-May-14 08:58N 46°10' W 123°55'0 0.0
2018-May-14 08:28N 46°10' W 123°55'0 0.0
2018-May-14 07:58N 46°10' W 123°55'0 0.0
2018-May-14 07:25N 46°10' W 123°55'0 0.0
2018-May-14 06:55N 46°10' W 123°55'0 0.0
2018-May-14 06:28N 46°10' W 123°55'0 0.0
2018-May-14 06:00N 46°10' W 123°55'0 0.0
2018-May-14 05:28N 46°10' W 123°55'0 0.0
2018-May-14 04:58N 46°10' W 123°55'0 0.0
2018-May-14 04:28N 46°10' W 123°55'0 0.0
2018-May-14 03:55N 46°10' W 123°55'0 0.0
2018-May-14 03:28N 46°10' W 123°55'0 0.0
2018-May-14 02:34N 46°10' W 123°55'0 0.0
2018-May-14 02:22N 46°10' W 123°55'0 0.0
2018-May-14 01:58N 46°10' W 123°55'0 0.0
2018-May-14 01:28N 46°10' W 123°55'0 0.0
2018-May-14 00:58N 46°10' W 123°55'0 0.0
2018-May-14 00:28N 46°10' W 123°55'0 0.0
2018-May-13 23:58N 46°10' W 123°55'0 0.0
2018-May-13 23:28N 46°10' W 123°55'0 0.0
2018-May-13 22:58N 46°10' W 123°55'0 0.0
2018-May-13 22:28N 46°10' W 123°55'0 0.0
2018-May-13 21:55N 46°10' W 123°55'0 0.0
2018-May-13 21:10N 46°10' W 123°55'0 0.0
2018-May-13 20:58N 46°10' W 123°55'0 0.0
2018-May-13 20:28N 46°10' W 123°55'0 0.0
2018-May-13 19:58N 46°10' W 123°55'0 0.0
2018-May-13 19:25N 46°10' W 123°55'0 0.0
2018-May-13 18:55N 46°10' W 123°55'0 0.0
2018-May-13 18:28N 46°10' W 123°55'0 0.0
2018-May-13 17:55N 46°10' W 123°55'0 0.0
2018-May-13 17:28N 46°10' W 123°55'0 0.0
2018-May-13 16:56N 46°10' W 123°55'0 0.0
2018-May-13 16:25N 46°10' W 123°55'0 0.0
2018-May-13 15:58N 46°10' W 123°55'0 0.0
2018-May-13 15:28N 46°10' W 123°55'0 0.0
2018-May-13 14:58N 46°10' W 123°55'0 0.0
2018-May-13 14:28N 46°10' W 123°55'0 0.0
2018-May-13 13:58N 46°10' W 123°55'0 0.0
2018-May-13 13:25N 46°10' W 123°55'0 0.0
2018-May-13 12:58N 46°10' W 123°55'0 0.0
2018-May-13 12:28N 46°10' W 123°55'0 0.0
2018-May-13 11:58N 46°10' W 123°55'0 0.0
2018-May-13 11:28N 46°10' W 123°55'0 0.0
2018-May-13 10:55N 46°10' W 123°55'0 0.0
2018-May-13 10:28N 46°10' W 123°55'0 0.0
2018-May-13 09:58N 46°10' W 123°55'0 0.0
2018-May-13 09:28N 46°10' W 123°55'0 0.0
2018-May-13 08:55N 46°10' W 123°55'0 0.0
2018-May-13 08:28N 46°10' W 123°55'0 0.0
2018-May-13 07:55N 46°10' W 123°55'0 0.0
2018-May-13 07:22N 46°10' W 123°55'0 0.0
2018-May-13 06:58N 46°10' W 123°55'0 0.0
2018-May-13 06:25N 46°10' W 123°55'0 0.0
2018-May-13 05:55N 46°10' W 123°55'0 0.0
2018-May-13 05:28N 46°10' W 123°55'0 0.0
2018-May-13 04:43N 46°10' W 123°55'0 0.0
2018-May-13 03:49N 46°10' W 123°55'0 0.0
2018-May-13 03:28N 46°10' W 123°55'0 0.0
2018-May-13 02:55N 46°10' W 123°55'0 0.0
2018-May-13 02:25N 46°10' W 123°55'0 0.0
2018-May-13 01:19N 46°10' W 123°55'0 0.0
2018-May-13 00:58N 46°10' W 123°55'0 0.0
2018-May-13 00:16N 46°10' W 123°55'0 0.0
2018-May-12 23:55N 46°10' W 123°55'0 0.0
2018-May-12 23:22N 46°10' W 123°55'0 0.0
2018-May-12 22:46N 46°10' W 123°55'0 0.0
2018-May-12 22:28N 46°10' W 123°55'0 0.0
2018-May-12 21:58N 46°10' W 123°55'0 0.0
2018-May-12 21:28N 46°10' W 123°55'0 0.0
2018-May-12 20:58N 46°10' W 123°55'0 0.0
2018-May-12 20:28N 46°10' W 123°55'0 0.0
2018-May-12 19:58N 46°10' W 123°55'0 0.0
2018-May-12 19:22N 46°10' W 123°55'0 0.0
2018-May-12 18:55N 46°10' W 123°55'0 0.0
2018-May-12 18:28N 46°10' W 123°55'0 0.0
2018-May-12 17:58N 46°10' W 123°55'0 0.0
2018-May-12 17:22N 46°10' W 123°55'0 0.0
2018-May-12 16:58N 46°10' W 123°55'0 0.0
2018-May-12 16:25N 46°10' W 123°55'0 0.0
2018-May-12 15:58N 46°10' W 123°55'0 0.0
2018-May-12 15:28N 46°10' W 123°55'0 0.0
2018-May-12 14:58N 46°10' W 123°55'0 0.0
2018-May-12 14:28N 46°10' W 123°55'0 0.0
2018-May-12 13:55N 46°10' W 123°55'0 0.0
2018-May-12 13:28N 46°10' W 123°55'0 0.0
2018-May-12 12:58N 46°10' W 123°55'0 0.0
2018-May-12 12:28N 46°10' W 123°55'0 0.0
2018-May-12 11:58N 46°10' W 123°55'0 0.0
2018-May-12 11:25N 46°10' W 123°55'0 0.0
2018-May-12 10:52N 46°10' W 123°55'0 0.0
2018-May-12 10:28N 46°10' W 123°55'0 0.0
2018-May-12 09:22N 46°10' W 123°55'0 0.0
2018-May-12 08:58N 46°10' W 123°55'0 0.0
2018-May-12 08:28N 46°10' W 123°55'0 0.0
2018-May-12 07:19N 46°10' W 123°55'0 0.0
2018-May-12 06:58N 46°10' W 123°55'0 0.0
2018-May-12 06:28N 46°10' W 123°55'0 0.0
2018-May-12 05:58N 46°10' W 123°55'0 0.0
2018-May-12 05:28N 46°10' W 123°55'0 0.0
2018-May-12 04:58N 46°10' W 123°55'0 0.0
2018-May-12 04:28N 46°10' W 123°55'0 0.0
2018-May-12 03:58N 46°10' W 123°55'0 0.0
2018-May-12 03:28N 46°10' W 123°55'0 0.0
2018-May-12 02:43N 46°10' W 123°55'0 0.0
2018-May-12 02:13N 46°10' W 123°55'0 0.0
2018-May-12 01:37N 46°10' W 123°55'0 0.0
2018-May-12 01:28N 46°10' W 123°55'0 0.0
2018-May-12 00:58N 46°10' W 123°55'0 0.0
2018-May-12 00:19N 46°10' W 123°55'0 0.0
2018-May-11 23:40N 46°10' W 123°55'0 0.0
2018-May-11 23:28N 46°10' W 123°55'0 0.0
2018-May-11 22:43N 46°10' W 123°55'0 0.0
2018-May-11 22:28N 46°10' W 123°55'0 0.0
2018-May-11 21:58N 46°10' W 123°55'0 0.0
2018-May-11 20:58N 46°10' W 123°55'0 0.0
2018-May-11 20:25N 46°10' W 123°55'0 0.0
2018-May-11 19:58N 46°10' W 123°55'0 0.0
2018-May-11 19:28N 46°10' W 123°55'0 0.0
2018-May-11 18:58N 46°10' W 123°55'0 0.0
2018-May-11 18:25N 46°10' W 123°55'0 0.0
2018-May-11 17:28N 46°10' W 123°55'0 0.0
2018-May-11 16:58N 46°10' W 123°55'0 0.0
2018-May-11 16:25N 46°10' W 123°55'0 0.0
2018-May-11 15:58N 46°10' W 123°55'0 0.0
2018-May-11 14:58N 46°10' W 123°55'0 0.0
2018-May-11 14:28N 46°10' W 123°55'0 0.0
2018-May-11 13:55N 46°10' W 123°55'0 0.0
2018-May-11 13:28N 46°10' W 123°55'0 0.0
2018-May-11 12:58N 46°10' W 123°55'0 0.0
2018-May-11 12:19N 46°10' W 123°55'0 0.0
2018-May-11 11:49N 46°10' W 123°55'0 0.0
2018-May-11 11:28N 46°10' W 123°55'0 0.0
2018-May-11 10:58N 46°10' W 123°55'0 0.0
2018-May-11 10:28N 46°10' W 123°55'0 0.0
2018-May-11 09:55N 46°10' W 123°55'0 0.0
2018-May-11 09:28N 46°10' W 123°55'0 0.0
2018-May-11 08:58N 46°10' W 123°55'0 0.0
2018-May-11 08:28N 46°10' W 123°55'0 0.0
2018-May-11 07:58N 46°10' W 123°55'0 0.0
2018-May-11 07:28N 46°10' W 123°55'0 0.0
2018-May-11 06:58N 46°10' W 123°55'0 0.0
2018-May-11 06:28N 46°10' W 123°55'0 0.0
2018-May-11 05:46N 46°10' W 123°55'0 0.0
2018-May-11 05:28N 46°10' W 123°55'0 0.0
2018-May-11 04:55N 46°10' W 123°55'0 0.0
2018-May-11 04:28N 46°10' W 123°55'0 0.0
2018-May-11 03:55N 46°10' W 123°55'0 0.0
2018-May-11 03:28N 46°10' W 123°55'0 0.0
2018-May-11 02:40N 46°10' W 123°55'0 0.0
2018-May-11 02:28N 46°10' W 123°55'0 0.0
2018-May-11 01:58N 46°10' W 123°55'0 0.0
2018-May-11 01:28N 46°10' W 123°55'0 0.0
2018-May-11 00:49N 46°10' W 123°55'0 0.0
2018-May-11 00:28N 46°10' W 123°55'0 0.0
2018-May-10 23:58N 46°10' W 123°55'0 0.0
2018-May-10 23:28N 46°10' W 123°55'0 0.0
2018-May-10 22:58N 46°10' W 123°55'0 0.0
2018-May-10 22:28N 46°10' W 123°55'0 0.0
2018-May-10 21:58N 46°10' W 123°55'0 0.0
2018-May-10 21:28N 46°10' W 123°55'0 0.0
2018-May-10 20:55N 46°10' W 123°55'0 0.0
2018-May-10 20:28N 46°10' W 123°55'0 0.0
2018-May-10 19:58N 46°10' W 123°55'0 0.0
2018-May-10 19:28N 46°10' W 123°55'0 0.0
2018-May-10 18:58N 46°10' W 123°55'0 0.0
2018-May-10 17:46N 46°10' W 123°55'0 0.0
2018-May-10 17:28N 46°10' W 123°55'0 0.0
2018-May-10 16:34N 46°10' W 123°55'0 0.0
2018-May-10 16:28N 46°10' W 123°55'0 0.0
2018-May-10 15:49N 46°10' W 123°55'0 0.0
2018-May-10 15:28N 46°10' W 123°55'0 0.0
2018-May-10 14:58N 46°10' W 123°55'0 0.0
2018-May-10 14:28N 46°10' W 123°55'0 0.0
2018-May-10 13:58N 46°10' W 123°55'0 0.0
2018-May-10 13:29N 46°10' W 123°55'0 0.0
2018-May-10 12:58N 46°10' W 123°55'0 0.0
2018-May-10 12:28N 46°10' W 123°55'0 0.0
2018-May-10 11:58N 46°10' W 123°55'0 0.0
2018-May-10 11:28N 46°10' W 123°55'0 0.0
2018-May-10 10:58N 46°10' W 123°55'0 0.0
2018-May-10 10:28N 46°10' W 123°55'0 0.0
2018-May-10 09:58N 46°10' W 123°55'0 0.0
2018-May-10 09:28N 46°10' W 123°55'0 0.0
2018-May-10 08:58N 46°10' W 123°55'0 0.0
2018-May-10 08:28N 46°10' W 123°55'0 0.0
2018-May-10 07:58N 46°10' W 123°55'0 0.0
2018-May-10 07:13N 46°10' W 123°55'0 0.0
2018-May-10 06:58N 46°10' W 123°55'0 0.0
2018-May-10 06:28N 46°10' W 123°55'0 0.0
2018-May-10 05:55N 46°10' W 123°55'0 0.0
2018-May-10 05:28N 46°10' W 123°55'0 0.0
2018-May-10 04:58N 46°10' W 123°55'0 0.0
2018-May-10 04:22N 46°10' W 123°55'0 0.0
2018-May-10 03:58N 46°10' W 123°55'0 0.0
2018-May-10 03:13N 46°10' W 123°55'0 0.0
2018-May-10 02:55N 46°10' W 123°55'0 0.0
2018-May-10 02:25N 46°10' W 123°55'0 0.0
2018-May-10 01:49N 46°10' W 123°55'0 0.0
2018-May-10 01:28N 46°10' W 123°55'0 0.0
2018-May-10 00:55N 46°10' W 123°55'0 0.0
2018-May-10 00:28N 46°10' W 123°55'0 0.0
2018-May-09 23:58N 46°10' W 123°55'0 0.0
2018-May-09 23:13N 46°10' W 123°55'0 0.0
2018-May-09 22:55N 46°10' W 123°55'0 0.0
2018-May-09 22:28N 46°10' W 123°55'0 0.0
2018-May-09 21:55N 46°10' W 123°55'0 0.0
2018-May-09 21:25N 46°10' W 123°55'0 0.0
2018-May-09 20:58N 46°10' W 123°55'0 0.0
2018-May-09 20:10N 46°10' W 123°55'0 0.0
2018-May-09 19:58N 46°10' W 123°55'0 0.0
2018-May-09 19:28N 46°10' W 123°55'0 0.0
2018-May-09 18:58N 46°10' W 123°55'0 0.0
2018-May-09 18:28N 46°10' W 123°55'0 0.0
2018-May-09 17:55N 46°10' W 123°55'0 0.0
2018-May-09 17:28N 46°10' W 123°55'0 0.0
2018-May-09 16:55N 46°10' W 123°55'0 0.0
2018-May-09 16:25N 46°10' W 123°55'0 0.0
2018-May-09 15:55N 46°10' W 123°55'0 0.0
2018-May-09 15:28N 46°10' W 123°55'0 0.0
2018-May-09 14:58N 46°10' W 123°55'0 0.0
2018-May-09 14:28N 46°10' W 123°55'0 0.0
2018-May-09 13:58N 46°10' W 123°55'0 0.0
2018-May-09 13:28N 46°10' W 123°55'0 0.0
2018-May-09 12:58N 46°10' W 123°55'0 0.0
2018-May-09 12:19N 46°10' W 123°55'0 0.0
2018-May-09 11:58N 46°10' W 123°55'0 0.0
2018-May-09 11:28N 46°10' W 123°55'0 0.0
2018-May-09 10:58N 46°10' W 123°55'0 0.0
2018-May-09 10:28N 46°10' W 123°55'0 0.0
2018-May-09 09:58N 46°10' W 123°55'0 0.0
2018-May-09 09:22N 46°10' W 123°55'0 0.0
2018-May-09 08:58N 46°10' W 123°55'0 0.0
2018-May-09 08:28N 46°10' W 123°55'0 0.0
2018-May-09 07:58N 46°10' W 123°55'0 0.0
2018-May-09 07:25N 46°10' W 123°55'0 0.0
2018-May-09 06:58N 46°10' W 123°55'0 0.0
2018-May-09 06:28N 46°10' W 123°55'0 0.0
2018-May-09 05:58N 46°10' W 123°55'0 0.0
2018-May-09 05:28N 46°10' W 123°55'0 0.0
2018-May-09 04:58N 46°10' W 123°55'0 0.0
2018-May-09 04:19N 46°10' W 123°55'0 0.0
2018-May-09 03:58N 46°10' W 123°55'0 0.0
2018-May-09 03:28N 46°10' W 123°55'0 0.0
2018-May-09 02:49N 46°10' W 123°55'0 0.0
2018-May-09 02:13N 46°10' W 123°55'0 0.0
2018-May-09 01:49N 46°10' W 123°55'0 0.0
2018-May-09 01:28N 46°10' W 123°55'0 0.0
2018-May-09 00:58N 46°10' W 123°55'0 0.0
2018-May-09 00:28N 46°10' W 123°55'0 0.0
2018-May-08 23:58N 46°10' W 123°55'0 0.0
2018-May-08 23:28N 46°10' W 123°55'0 0.0
2018-May-08 22:58N 46°10' W 123°55'0 0.0
2018-May-08 22:28N 46°10' W 123°55'0 0.0
2018-May-08 21:55N 46°10' W 123°55'0 0.0
2018-May-08 21:28N 46°10' W 123°55'0 0.0
2018-May-08 20:58N 46°10' W 123°55'0 0.0
2018-May-08 20:28N 46°10' W 123°55'0 0.0
2018-May-08 19:58N 46°10' W 123°55'0 0.0
2018-May-08 19:28N 46°10' W 123°55'0 0.0
2018-May-08 18:58N 46°10' W 123°55'0 0.0
2018-May-08 18:28N 46°10' W 123°55'0 0.0
2018-May-08 17:52N 46°10' W 123°55'0 0.0
2018-May-08 17:19N 46°10' W 123°55'0 0.0
2018-May-08 16:49N 46°10' W 123°55'0 0.0
2018-May-08 16:22N 46°10' W 123°55'0 0.0
2018-May-08 15:58N 46°10' W 123°55'0 0.0
2018-May-08 15:28N 46°10' W 123°55'0 0.0
2018-May-08 14:58N 46°10' W 123°55'0 0.0
2018-May-08 14:28N 46°10' W 123°55'0 0.0
2018-May-08 13:40N 46°10' W 123°55'0 0.0
2018-May-08 13:28N 46°10' W 123°55'0 0.0
2018-May-08 12:58N 46°10' W 123°55'0 0.0
2018-May-08 12:28N 46°10' W 123°55'0 0.0
2018-May-08 11:55N 46°10' W 123°55'0 0.0
2018-May-08 11:28N 46°10' W 123°55'0 0.0
2018-May-08 10:55N 46°10' W 123°55'0 0.0
2018-May-08 10:28N 46°10' W 123°55'0 0.0
2018-May-08 09:58N 46°10' W 123°55'0 0.0
2018-May-08 09:28N 46°10' W 123°55'0 0.0
2018-May-08 08:43N 46°10' W 123°55'0 0.0
2018-May-08 08:28N 46°10' W 123°55'0 0.0
2018-May-08 07:58N 46°10' W 123°55'0 0.0
2018-May-08 07:28N 46°10' W 123°55'0 0.0
2018-May-08 06:52N 46°10' W 123°55'0 0.0
2018-May-08 06:28N 46°10' W 123°55'0 0.0
2018-May-08 05:58N 46°10' W 123°55'0 0.0
2018-May-08 05:19N 46°10' W 123°55'0 0.0
2018-May-08 04:58N 46°10' W 123°55'0 0.0
2018-May-08 04:28N 46°10' W 123°55'0 0.0
2018-May-08 03:55N 46°10' W 123°55'0 0.0
2018-May-08 03:10N 46°10' W 123°55'0 0.0
2018-May-08 02:46N 46°10' W 123°55'0 0.0
2018-May-08 02:28N 46°10' W 123°55'0 0.0
2018-May-08 01:43N 46°10' W 123°55'0 0.0
2018-May-08 01:22N 46°10' W 123°55'0 0.0
2018-May-08 00:55N 46°10' W 123°55'0 0.0
2018-May-08 00:19N 46°10' W 123°55'0 0.0
2018-May-07 23:49N 46°10' W 123°55'0 0.0
2018-May-07 23:28N 46°10' W 123°55'0 0.0
2018-May-07 23:00N 46°10' W 123°55'0 0.0
2018-May-07 22:25N 46°10' W 123°55'0 0.0
2018-May-07 21:49N 46°10' W 123°55'0 0.0
2018-May-07 21:28N 46°10' W 123°55'0 0.0
2018-May-07 20:58N 46°10' W 123°55'0 0.0
2018-May-07 20:28N 46°10' W 123°55'  
Track history (hours):
 
Tides and Currents Weather Stations Pressure Air Temp Water Temp Dewpoint Dewpoint Depression Visibility Wind Speed Wind Dir Waves Ship Positions

Git R Dun

Owner: Tarabochia, Ryan J, Astoria, OR. More information available from US FCC via Universal Licensing System and Coast Guard Vessel Documentation Center.

Last reported at 2018-May-17 20:11 UTC. Time now 2018-May-22 10:14 UTC.
Position N 46°06' W 124°02'.

Length 12 m.

MMSI: 367598080.

Date/timePositionNaut miles runAvg speedWind from/ knotsBaromVisibWave heightAir tempDewpointWater temp
2018-May-17 20:11N 46°06' W 124°02'1 3.0
2018-May-17 20:00N 46°07' W 124°02'1 2.8
2018-May-17 19:30N 46°08' W 124°04'2 3.2
2018-May-17 19:00N 46°09' W 124°05'1 2.8
2018-May-17 18:30N 46°10' W 124°06'1 2.0
2018-May-17 18:00N 46°11' W 124°06'2 3.2
2018-May-17 17:30N 46°13' W 124°06'4 7.4
2018-May-17 17:00N 46°15' W 124°01'5 9.5
2018-May-17 16:30N 46°12' W 123°56'2 3.3
2018-May-17 15:52N 46°10' W 123°55'0 0.0
2018-May-17 15:28N 46°10' W 123°55'0 0.0
2018-May-17 14:55N 46°10' W 123°55'0 0.0
2018-May-17 14:28N 46°10' W 123°55'0 0.0
2018-May-17 13:58N 46°10' W 123°55'0 0.0
2018-May-17 13:19N 46°10' W 123°55'0 0.0
2018-May-17 12:58N 46°10' W 123°55'0 0.0
2018-May-17 12:28N 46°10' W 123°55'0 0.0
2018-May-17 11:55N 46°10' W 123°55'0 0.0
2018-May-17 11:28N 46°10' W 123°55'0 0.0
2018-May-17 10:58N 46°10' W 123°55'0 0.0
2018-May-17 10:25N 46°10' W 123°55'0 0.0
2018-May-17 09:58N 46°10' W 123°55'0 0.0
2018-May-17 09:28N 46°10' W 123°55'0 0.0
2018-May-17 08:58N 46°10' W 123°55'0 0.0
2018-May-17 08:28N 46°10' W 123°55'0 0.0
2018-May-17 07:55N 46°10' W 123°55'0 0.0
2018-May-17 07:22N 46°10' W 123°55'0 0.0
2018-May-17 06:58N 46°10' W 123°55'0 0.0
2018-May-17 06:28N 46°10' W 123°55'0 0.0
2018-May-17 05:58N 46°10' W 123°55'0 0.0
2018-May-17 05:16N 46°10' W 123°55'0 0.0
2018-May-17 04:58N 46°10' W 123°55'0 0.0
2018-May-17 04:28N 46°10' W 123°55'0 0.0
2018-May-17 03:58N 46°10' W 123°55'0 0.0
2018-May-17 03:28N 46°10' W 123°55'0 0.0
2018-May-17 02:58N 46°10' W 123°55'0 0.0
2018-May-17 02:13N 46°10' W 123°55'0 0.0
2018-May-17 01:58N 46°10' W 123°55'0 0.0
2018-May-17 01:28N 46°10' W 123°55'0 0.0
2018-May-17 00:58N 46°10' W 123°55'0 0.0
2018-May-16 23:55N 46°10' W 123°55'0 0.0
2018-May-16 23:28N 46°10' W 123°55'0 0.0
2018-May-16 22:58N 46°10' W 123°55'0 0.0
2018-May-16 22:28N 46°10' W 123°55'0 0.0
2018-May-16 21:58N 46°10' W 123°55'0 0.0
2018-May-16 21:28N 46°10' W 123°55'0 0.0
2018-May-16 20:58N 46°10' W 123°55'0 0.0
2018-May-16 20:25N 46°10' W 123°55'0 0.0
2018-May-16 19:55N 46°10' W 123°55'0 0.0
2018-May-16 19:28N 46°10' W 123°55'0 0.0
2018-May-16 18:55N 46°10' W 123°55'0 0.0
2018-May-16 18:25N 46°10' W 123°55'0 0.0
2018-May-16 17:58N 46°10' W 123°55'0 0.0
2018-May-16 17:28N 46°10' W 123°55'0 0.0
2018-May-16 16:55N 46°10' W 123°55'0 0.0
2018-May-16 16:28N 46°10' W 123°55'0 0.0
2018-May-16 15:58N 46°10' W 123°55'0 0.0
2018-May-16 15:28N 46°10' W 123°55'0 0.0
2018-May-16 14:58N 46°10' W 123°55'0 0.0
2018-May-16 14:28N 46°10' W 123°55'0 0.0
2018-May-16 13:58N 46°10' W 123°55'0 0.0
2018-May-16 13:28N 46°10' W 123°55'0 0.0
2018-May-16 12:58N 46°10' W 123°55'0 0.0
2018-May-16 12:28N 46°10' W 123°55'0 0.0
2018-May-16 11:55N 46°10' W 123°55'0 0.0
2018-May-16 11:28N 46°10' W 123°55'0 0.0
2018-May-16 10:58N 46°10' W 123°55'0 0.0
2018-May-16 10:28N 46°10' W 123°55'0 0.0
2018-May-16 09:58N 46°10' W 123°55'0 0.0
2018-May-16 09:28N 46°10' W 123°55'0 0.0
2018-May-16 08:58N 46°10' W 123°55'0 0.0
2018-May-16 08:25N 46°10' W 123°55'0 0.0
2018-May-16 07:58N 46°10' W 123°55'0 0.0
2018-May-16 07:28N 46°10' W 123°55'0 0.0
2018-May-16 06:56N 46°10' W 123°55'0 0.0
2018-May-16 06:28N 46°10' W 123°55'0 0.0
2018-May-16 05:58N 46°10' W 123°55'0 0.0
2018-May-16 05:25N 46°10' W 123°55'0 0.0
2018-May-16 04:58N 46°10' W 123°55'0 0.0
2018-May-16 04:28N 46°10' W 123°55'0 0.0
2018-May-16 03:58N 46°10' W 123°55'0 0.0
2018-May-16 03:25N 46°10' W 123°55'0 0.0
2018-May-16 02:55N 46°10' W 123°55'0 0.0
2018-May-16 02:28N 46°10' W 123°55'0 0.0
2018-May-16 01:55N 46°10' W 123°55'0 0.0
2018-May-16 01:28N 46°10' W 123°55'0 0.0
2018-May-16 00:58N 46°10' W 123°55'0 0.0
2018-May-16 00:28N 46°10' W 123°55'0 0.0
2018-May-15 23:58N 46°10' W 123°55'0 0.0
2018-May-15 23:16N 46°10' W 123°55'0 0.0
2018-May-15 22:58N 46°10' W 123°55'0 0.0
2018-May-15 22:28N 46°10' W 123°55'0 0.0
2018-May-15 21:34N 46°10' W 123°55'0 0.0
2018-May-15 21:16N 46°10' W 123°55'0 0.0
2018-May-15 20:58N 46°10' W 123°55'0 0.0
2018-May-15 20:28N 46°10' W 123°55'0 0.0
2018-May-15 19:58N 46°10' W 123°55'0 0.0
2018-May-15 19:25N 46°10' W 123°55'0 0.0
2018-May-15 18:55N 46°10' W 123°55'0 0.0
2018-May-15 18:28N 46°10' W 123°55'0 0.0
2018-May-15 17:46N 46°10' W 123°55'0 0.0
2018-May-15 17:28N 46°10' W 123°55'0 0.0
2018-May-15 16:58N 46°10' W 123°55'0 0.0
2018-May-15 16:13N 46°10' W 123°55'0 0.0
2018-May-15 15:58N 46°10' W 123°55'0 0.0
2018-May-15 15:22N 46°10' W 123°55'0 0.0
2018-May-15 14:58N 46°10' W 123°55'0 0.0
2018-May-15 14:28N 46°10' W 123°55'0 0.0
2018-May-15 13:58N 46°10' W 123°55'0 0.0
2018-May-15 13:28N 46°10' W 123°55'0 0.0
2018-May-15 12:58N 46°10' W 123°55'0 0.0
2018-May-15 12:16N 46°10' W 123°55'0 0.0
2018-May-15 11:58N 46°10' W 123°55'0 0.0
2018-May-15 11:28N 46°10' W 123°55'0 0.0
2018-May-15 10:58N 46°10' W 123°55'0 0.0
2018-May-15 10:28N 46°10' W 123°55'0 0.0
2018-May-15 09:58N 46°10' W 123°55'0 0.0
2018-May-15 09:04N 46°10' W 123°55'0 0.0
2018-May-15 08:58N 46°10' W 123°55'0 0.0
2018-May-15 08:22N 46°10' W 123°55'0 0.0
2018-May-15 07:58N 46°10' W 123°55'0 0.0
2018-May-15 07:28N 46°10' W 123°55'0 0.0
2018-May-15 06:43N 46°10' W 123°55'0 0.0
2018-May-15 06:28N 46°10' W 123°55'0 0.0
2018-May-15 05:58N 46°10' W 123°55'0 0.0
2018-May-15 05:28N 46°10' W 123°55'0 0.0
2018-May-15 04:58N 46°10' W 123°55'0 0.0
2018-May-15 04:10N 46°10' W 123°55'0 0.0
2018-May-15 03:28N 46°10' W 123°55'0 0.0
2018-May-15 02:55N 46°10' W 123°55'0 0.0
2018-May-15 02:28N 46°10' W 123°55'0 0.0
2018-May-15 01:58N 46°10' W 123°55'0 0.0
2018-May-15 01:28N 46°10' W 123°55'0 0.0
2018-May-15 00:58N 46°10' W 123°55'0 0.0
2018-May-15 00:28N 46°10' W 123°55'0 0.0
2018-May-14 23:55N 46°10' W 123°55'0 0.0
2018-May-14 23:28N 46°10' W 123°55'0 0.0
2018-May-14 22:52N 46°10' W 123°55'0 0.0
2018-May-14 22:28N 46°10' W 123°55'0 0.0
2018-May-14 21:43N 46°10' W 123°55'0 0.0
2018-May-14 21:28N 46°10' W 123°55'0 0.0
2018-May-14 20:55N 46°10' W 123°55'0 0.0
2018-May-14 20:28N 46°10' W 123°55'0 0.0
2018-May-14 19:49N 46°10' W 123°55'0 0.0
2018-May-14 19:28N 46°10' W 123°55'0 0.0
2018-May-14 18:58N 46°10' W 123°55'0 0.0
2018-May-14 18:28N 46°10' W 123°55'0 0.0
2018-May-14 17:55N 46°10' W 123°55'0 0.0
2018-May-14 17:27N 46°10' W 123°55'0 0.0
2018-May-14 16:58N 46°10' W 123°55'0 0.0
2018-May-14 16:28N 46°10' W 123°55'0 0.0
2018-May-14 15:58N 46°10' W 123°55'0 0.0
2018-May-14 15:28N 46°10' W 123°55'0 0.0
2018-May-14 14:58N 46°10' W 123°55'0 0.0
2018-May-14 14:19N 46°10' W 123°55'0 0.0
2018-May-14 13:58N 46°10' W 123°55'0 0.0
2018-May-14 13:25N 46°10' W 123°55'0 0.0
2018-May-14 12:58N 46°10' W 123°55'0 0.0
2018-May-14 12:28N 46°10' W 123°55'0 0.0
2018-May-14 11:55N 46°10' W 123°55'0 0.0
2018-May-14 11:28N 46°10' W 123°55'0 0.0
2018-May-14 10:58N 46°10' W 123°55'0 0.0
2018-May-14 10:28N 46°10' W 123°55'0 0.0
2018-May-14 09:58N 46°10' W 123°55'0 0.0
2018-May-14 09:28N 46°10' W 123°55'0 0.0
2018-May-14 08:58N 46°10' W 123°55'0 0.0
2018-May-14 08:28N 46°10' W 123°55'0 0.0
2018-May-14 07:58N 46°10' W 123°55'0 0.0
2018-May-14 07:25N 46°10' W 123°55'0 0.0
2018-May-14 06:55N 46°10' W 123°55'0 0.0
2018-May-14 06:28N 46°10' W 123°55'0 0.0
2018-May-14 06:00N 46°10' W 123°55'0 0.0
2018-May-14 05:28N 46°10' W 123°55'0 0.0
2018-May-14 04:58N 46°10' W 123°55'0 0.0
2018-May-14 04:28N 46°10' W 123°55'0 0.0
2018-May-14 03:55N 46°10' W 123°55'0 0.0
2018-May-14 03:28N 46°10' W 123°55'0 0.0
2018-May-14 02:34N 46°10' W 123°55'0 0.0
2018-May-14 02:22N 46°10' W 123°55'0 0.0
2018-May-14 01:58N 46°10' W 123°55'0 0.0
2018-May-14 01:28N 46°10' W 123°55'0 0.0
2018-May-14 00:58N 46°10' W 123°55'0 0.0
2018-May-14 00:28N 46°10' W 123°55'0 0.0
2018-May-13 23:58N 46°10' W 123°55'0 0.0
2018-May-13 23:28N 46°10' W 123°55'0 0.0
2018-May-13 22:58N 46°10' W 123°55'0 0.0
2018-May-13 22:28N 46°10' W 123°55'0 0.0
2018-May-13 21:55N 46°10' W 123°55'0 0.0
2018-May-13 21:10N 46°10' W 123°55'0 0.0
2018-May-13 20:58N 46°10' W 123°55'0 0.0
2018-May-13 20:28N 46°10' W 123°55'0 0.0
2018-May-13 19:58N 46°10' W 123°55'0 0.0
2018-May-13 19:25N 46°10' W 123°55'0 0.0
2018-May-13 18:55N 46°10' W 123°55'0 0.0
2018-May-13 18:28N 46°10' W 123°55'0 0.0
2018-May-13 17:55N 46°10' W 123°55'0 0.0
2018-May-13 17:28N 46°10' W 123°55'0 0.0
2018-May-13 16:56N 46°10' W 123°55'0 0.0
2018-May-13 16:25N 46°10' W 123°55'0 0.0
2018-May-13 15:58N 46°10' W 123°55'0 0.0
2018-May-13 15:28N 46°10' W 123°55'0 0.0
2018-May-13 14:58N 46°10' W 123°55'0 0.0
2018-May-13 14:28N 46°10' W 123°55'0 0.0
2018-May-13 13:58N 46°10' W 123°55'0 0.0
2018-May-13 13:25N 46°10' W 123°55'0 0.0
2018-May-13 12:58N 46°10' W 123°55'0 0.0
2018-May-13 12:28N 46°10' W 123°55'0 0.0
2018-May-13 11:58N 46°10' W 123°55'0 0.0
2018-May-13 11:28N 46°10' W 123°55'0 0.0
2018-May-13 10:55N 46°10' W 123°55'0 0.0
2018-May-13 10:28N 46°10' W 123°55'0 0.0
2018-May-13 09:58N 46°10' W 123°55'0 0.0
2018-May-13 09:28N 46°10' W 123°55'0 0.0
2018-May-13 08:55N 46°10' W 123°55'0 0.0
2018-May-13 08:28N 46°10' W 123°55'0 0.0
2018-May-13 07:55N 46°10' W 123°55'0 0.0
2018-May-13 07:22N 46°10' W 123°55'0 0.0
2018-May-13 06:58N 46°10' W 123°55'0 0.0
2018-May-13 06:25N 46°10' W 123°55'0 0.0
2018-May-13 05:55N 46°10' W 123°55'0 0.0
2018-May-13 05:28N 46°10' W 123°55'0 0.0
2018-May-13 04:43N 46°10' W 123°55'0 0.0
2018-May-13 03:49N 46°10' W 123°55'0 0.0
2018-May-13 03:28N 46°10' W 123°55'0 0.0
2018-May-13 02:55N 46°10' W 123°55'0 0.0
2018-May-13 02:25N 46°10' W 123°55'0 0.0
2018-May-13 01:19N 46°10' W 123°55'0 0.0
2018-May-13 00:58N 46°10' W 123°55'0 0.0
2018-May-13 00:16N 46°10' W 123°55'0 0.0
2018-May-12 23:55N 46°10' W 123°55'0 0.0
2018-May-12 23:22N 46°10' W 123°55'0 0.0
2018-May-12 22:46N 46°10' W 123°55'0 0.0
2018-May-12 22:28N 46°10' W 123°55'0 0.0
2018-May-12 21:58N 46°10' W 123°55'0 0.0
2018-May-12 21:28N 46°10' W 123°55'0 0.0
2018-May-12 20:58N 46°10' W 123°55'0 0.0
2018-May-12 20:28N 46°10' W 123°55'0 0.0
2018-May-12 19:58N 46°10' W 123°55'0 0.0
2018-May-12 19:22N 46°10' W 123°55'0 0.0
2018-May-12 18:55N 46°10' W 123°55'0 0.0
2018-May-12 18:28N 46°10' W 123°55'0 0.0
2018-May-12 17:58N 46°10' W 123°55'0 0.0
2018-May-12 17:22N 46°10' W 123°55'0 0.0
2018-May-12 16:58N 46°10' W 123°55'0 0.0
2018-May-12 16:25N 46°10' W 123°55'0 0.0
2018-May-12 15:58N 46°10' W 123°55'0 0.0
2018-May-12 15:28N 46°10' W 123°55'0 0.0
2018-May-12 14:58N 46°10' W 123°55'0 0.0
2018-May-12 14:28N 46°10' W 123°55'0 0.0
2018-May-12 13:55N 46°10' W 123°55'0 0.0
2018-May-12 13:28N 46°10' W 123°55'0 0.0
2018-May-12 12:58N 46°10' W 123°55'0 0.0
2018-May-12 12:28N 46°10' W 123°55'0 0.0
2018-May-12 11:58N 46°10' W 123°55'0 0.0
2018-May-12 11:25N 46°10' W 123°55'0 0.0
2018-May-12 10:52N 46°10' W 123°55'0 0.0
2018-May-12 10:28N 46°10' W 123°55'0 0.0
2018-May-12 09:22N 46°10' W 123°55'0 0.0
2018-May-12 08:58N 46°10' W 123°55'0 0.0
2018-May-12 08:28N 46°10' W 123°55'0 0.0
2018-May-12 07:19N 46°10' W 123°55'0 0.0
2018-May-12 06:58N 46°10' W 123°55'0 0.0
2018-May-12 06:28N 46°10' W 123°55'0 0.0
2018-May-12 05:58N 46°10' W 123°55'0 0.0
2018-May-12 05:28N 46°10' W 123°55'0 0.0
2018-May-12 04:58N 46°10' W 123°55'0 0.0
2018-May-12 04:28N 46°10' W 123°55'0 0.0
2018-May-12 03:58N 46°10' W 123°55'0 0.0
2018-May-12 03:28N 46°10' W 123°55'0 0.0
2018-May-12 02:43N 46°10' W 123°55'0 0.0
2018-May-12 02:13N 46°10' W 123°55'0 0.0
2018-May-12 01:37N 46°10' W 123°55'0 0.0
2018-May-12 01:28N 46°10' W 123°55'0 0.0
2018-May-12 00:58N 46°10' W 123°55'0 0.0
2018-May-12 00:19N 46°10' W 123°55'0 0.0
2018-May-11 23:40N 46°10' W 123°55'0 0.0
2018-May-11 23:28N 46°10' W 123°55'0 0.0
2018-May-11 22:43N 46°10' W 123°55'0 0.0
2018-May-11 22:28N 46°10' W 123°55'0 0.0
2018-May-11 21:58N 46°10' W 123°55'0 0.0
2018-May-11 20:58N 46°10' W 123°55'0 0.0
2018-May-11 20:25N 46°10' W 123°55'0 0.0
2018-May-11 19:58N 46°10' W 123°55'0 0.0
2018-May-11 19:28N 46°10' W 123°55'0 0.0
2018-May-11 18:58N 46°10' W 123°55'0 0.0
2018-May-11 18:25N 46°10' W 123°55'0 0.0
2018-May-11 17:28N 46°10' W 123°55'0 0.0
2018-May-11 16:58N 46°10' W 123°55'0 0.0
2018-May-11 16:25N 46°10' W 123°55'0 0.0
2018-May-11 15:58N 46°10' W 123°55'0 0.0
2018-May-11 14:58N 46°10' W 123°55'0 0.0
2018-May-11 14:28N 46°10' W 123°55'0 0.0
2018-May-11 13:55N 46°10' W 123°55'0 0.0
2018-May-11 13:28N 46°10' W 123°55'0 0.0
2018-May-11 12:58N 46°10' W 123°55'0 0.0
2018-May-11 12:19N 46°10' W 123°55'0 0.0
2018-May-11 11:49N 46°10' W 123°55'0 0.0
2018-May-11 11:28N 46°10' W 123°55'0 0.0
2018-May-11 10:58N 46°10' W 123°55'0 0.0
2018-May-11 10:28N 46°10' W 123°55'0 0.0
2018-May-11 09:55N 46°10' W 123°55'0 0.0
2018-May-11 09:28N 46°10' W 123°55'0 0.0
2018-May-11 08:58N 46°10' W 123°55'0 0.0
2018-May-11 08:28N 46°10' W 123°55'0 0.0
2018-May-11 07:58N 46°10' W 123°55'0 0.0
2018-May-11 07:28N 46°10' W 123°55'0 0.0
2018-May-11 06:58N 46°10' W 123°55'0 0.0
2018-May-11 06:28N 46°10' W 123°55'0 0.0
2018-May-11 05:46N 46°10' W 123°55'0 0.0
2018-May-11 05:28N 46°10' W 123°55'0 0.0
2018-May-11 04:55N 46°10' W 123°55'0 0.0
2018-May-11 04:28N 46°10' W 123°55'0 0.0
2018-May-11 03:55N 46°10' W 123°55'0 0.0
2018-May-11 03:28N 46°10' W 123°55'0 0.0
2018-May-11 02:40N 46°10' W 123°55'0 0.0
2018-May-11 02:28N 46°10' W 123°55'0 0.0
2018-May-11 01:58N 46°10' W 123°55'0 0.0
2018-May-11 01:28N 46°10' W 123°55'0 0.0
2018-May-11 00:49N 46°10' W 123°55'0 0.0
2018-May-11 00:28N 46°10' W 123°55'0 0.0
2018-May-10 23:58N 46°10' W 123°55'0 0.0
2018-May-10 23:28N 46°10' W 123°55'0 0.0
2018-May-10 22:58N 46°10' W 123°55'0 0.0
2018-May-10 22:28N 46°10' W 123°55'0 0.0
2018-May-10 21:58N 46°10' W 123°55'0 0.0
2018-May-10 21:28N 46°10' W 123°55'0 0.0
2018-May-10 20:55N 46°10' W 123°55'0 0.0
2018-May-10 20:28N 46°10' W 123°55'0 0.0
2018-May-10 19:58N 46°10' W 123°55'0 0.0
2018-May-10 19:28N 46°10' W 123°55'0 0.0
2018-May-10 18:58N 46°10' W 123°55'0 0.0
2018-May-10 17:46N 46°10' W 123°55'0 0.0
2018-May-10 17:28N 46°10' W 123°55'0 0.0
2018-May-10 16:34N 46°10' W 123°55'0 0.0
2018-May-10 16:28N 46°10' W 123°55'0 0.0
2018-May-10 15:49N 46°10' W 123°55'0 0.0
2018-May-10 15:28N 46°10' W 123°55'0 0.0
2018-May-10 14:58N 46°10' W 123°55'0 0.0
2018-May-10 14:28N 46°10' W 123°55'0 0.0
2018-May-10 13:58N 46°10' W 123°55'0 0.0
2018-May-10 13:29N 46°10' W 123°55'0 0.0
2018-May-10 12:58N 46°10' W 123°55'0 0.0
2018-May-10 12:28N 46°10' W 123°55'0 0.0
2018-May-10 11:58N 46°10' W 123°55'0 0.0
2018-May-10 11:28N 46°10' W 123°55'0 0.0
2018-May-10 10:58N 46°10' W 123°55'0 0.0
2018-May-10 10:28N 46°10' W 123°55'0 0.0
2018-May-10 09:58N 46°10' W 123°55'0 0.0
2018-May-10 09:28N 46°10' W 123°55'0 0.0
2018-May-10 08:58N 46°10' W 123°55'0 0.0
2018-May-10 08:28N 46°10' W 123°55'0 0.0
2018-May-10 07:58N 46°10' W 123°55'0 0.0
2018-May-10 07:13N 46°10' W 123°55'0 0.0
2018-May-10 06:58N 46°10' W 123°55'0 0.0
2018-May-10 06:28N 46°10' W 123°55'0 0.0
2018-May-10 05:55N 46°10' W 123°55'0 0.0
2018-May-10 05:28N 46°10' W 123°55'0 0.0
2018-May-10 04:58N 46°10' W 123°55'0 0.0
2018-May-10 04:22N 46°10' W 123°55'0 0.0
2018-May-10 03:58N 46°10' W 123°55'0 0.0
2018-May-10 03:13N 46°10' W 123°55'0 0.0
2018-May-10 02:55N 46°10' W 123°55'0 0.0
2018-May-10 02:25N 46°10' W 123°55'0 0.0
2018-May-10 01:49N 46°10' W 123°55'0 0.0
2018-May-10 01:28N 46°10' W 123°55'0 0.0
2018-May-10 00:55N 46°10' W 123°55'0 0.0
2018-May-10 00:28N 46°10' W 123°55'0 0.0
2018-May-09 23:58N 46°10' W 123°55'0 0.0
2018-May-09 23:13N 46°10' W 123°55'0 0.0
2018-May-09 22:55N 46°10' W 123°55'0 0.0
2018-May-09 22:28N 46°10' W 123°55'0 0.0
2018-May-09 21:55N 46°10' W 123°55'0 0.0
2018-May-09 21:25N 46°10' W 123°55'0 0.0
2018-May-09 20:58N 46°10' W 123°55'0 0.0
2018-May-09 20:10N 46°10' W 123°55'0 0.0
2018-May-09 19:58N 46°10' W 123°55'0 0.0
2018-May-09 19:28N 46°10' W 123°55'0 0.0
2018-May-09 18:58N 46°10' W 123°55'0 0.0
2018-May-09 18:28N 46°10' W 123°55'0 0.0
2018-May-09 17:55N 46°10' W 123°55'0 0.0
2018-May-09 17:28N 46°10' W 123°55'0 0.0
2018-May-09 16:55N 46°10' W 123°55'0 0.0
2018-May-09 16:25N 46°10' W 123°55'0 0.0
2018-May-09 15:55N 46°10' W 123°55'0 0.0
2018-May-09 15:28N 46°10' W 123°55'0 0.0
2018-May-09 14:58N 46°10' W 123°55'0 0.0
2018-May-09 14:28N 46°10' W 123°55'0 0.0
2018-May-09 13:58N 46°10' W 123°55'0 0.0
2018-May-09 13:28N 46°10' W 123°55'0 0.0
2018-May-09 12:58N 46°10' W 123°55'0 0.0
2018-May-09 12:19N 46°10' W 123°55'0 0.0
2018-May-09 11:58N 46°10' W 123°55'0 0.0
2018-May-09 11:28N 46°10' W 123°55'0 0.0
2018-May-09 10:58N 46°10' W 123°55'0 0.0
2018-May-09 10:28N 46°10' W 123°55'0 0.0
2018-May-09 09:58N 46°10' W 123°55'0 0.0
2018-May-09 09:22N 46°10' W 123°55'0 0.0
2018-May-09 08:58N 46°10' W 123°55'0 0.0
2018-May-09 08:28N 46°10' W 123°55'0 0.0
2018-May-09 07:58N 46°10' W 123°55'0 0.0
2018-May-09 07:25N 46°10' W 123°55'0 0.0
2018-May-09 06:58N 46°10' W 123°55'0 0.0
2018-May-09 06:28N 46°10' W 123°55'0 0.0
2018-May-09 05:58N 46°10' W 123°55'0 0.0
2018-May-09 05:28N 46°10' W 123°55'0 0.0
2018-May-09 04:58N 46°10' W 123°55'0 0.0
2018-May-09 04:19N 46°10' W 123°55'0 0.0
2018-May-09 03:58N 46°10' W 123°55'0 0.0
2018-May-09 03:28N 46°10' W 123°55'0 0.0
2018-May-09 02:49N 46°10' W 123°55'0 0.0
2018-May-09 02:13N 46°10' W 123°55'0 0.0
2018-May-09 01:49N 46°10' W 123°55'0 0.0
2018-May-09 01:28N 46°10' W 123°55'0 0.0
2018-May-09 00:58N 46°10' W 123°55'0 0.0
2018-May-09 00:28N 46°10' W 123°55'0 0.0
2018-May-08 23:58N 46°10' W 123°55'0 0.0
2018-May-08 23:28N 46°10' W 123°55'0 0.0
2018-May-08 22:58N 46°10' W 123°55'0 0.0
2018-May-08 22:28N 46°10' W 123°55'0 0.0
2018-May-08 21:55N 46°10' W 123°55'0 0.0
2018-May-08 21:28N 46°10' W 123°55'0 0.0
2018-May-08 20:58N 46°10' W 123°55'0 0.0
2018-May-08 20:28N 46°10' W 123°55'0 0.0
2018-May-08 19:58N 46°10' W 123°55'0 0.0
2018-May-08 19:28N 46°10' W 123°55'0 0.0
2018-May-08 18:58N 46°10' W 123°55'0 0.0
2018-May-08 18:28N 46°10' W 123°55'0 0.0
2018-May-08 17:52N 46°10' W 123°55'0 0.0
2018-May-08 17:19N 46°10' W 123°55'0 0.0
2018-May-08 16:49N 46°10' W 123°55'0 0.0
2018-May-08 16:22N 46°10' W 123°55'0 0.0
2018-May-08 15:58N 46°10' W 123°55'0 0.0
2018-May-08 15:28N 46°10' W 123°55'0 0.0
2018-May-08 14:58N 46°10' W 123°55'0 0.0
2018-May-08 14:28N 46°10' W 123°55'0 0.0
2018-May-08 13:40N 46°10' W 123°55'0 0.0
2018-May-08 13:28N 46°10' W 123°55'0 0.0
2018-May-08 12:58N 46°10' W 123°55'0 0.0
2018-May-08 12:28N 46°10' W 123°55'0 0.0
2018-May-08 11:55N 46°10' W 123°55'0 0.0
2018-May-08 11:28N 46°10' W 123°55'0 0.0
2018-May-08 10:55N 46°10' W 123°55'0 0.0
2018-May-08 10:28N 46°10' W 123°55'0 0.0
2018-May-08 09:58N 46°10' W 123°55'0 0.0
2018-May-08 09:28N 46°10' W 123°55'0 0.0
2018-May-08 08:43N 46°10' W 123°55'0 0.0
2018-May-08 08:28N 46°10' W 123°55'0 0.0
2018-May-08 07:58N 46°10' W 123°55'0 0.0
2018-May-08 07:28N 46°10' W 123°55'0 0.0
2018-May-08 06:52N 46°10' W 123°55'0 0.0
2018-May-08 06:28N 46°10' W 123°55'0 0.0
2018-May-08 05:58N 46°10' W 123°55'0 0.0
2018-May-08 05:19N 46°10' W 123°55'0 0.0
2018-May-08 04:58N 46°10' W 123°55'0 0.0
2018-May-08 04:28N 46°10' W 123°55'0 0.0
2018-May-08 03:55N 46°10' W 123°55'0 0.0
2018-May-08 03:10N 46°10' W 123°55'0 0.0
2018-May-08 02:46N 46°10' W 123°55'0 0.0
2018-May-08 02:28N 46°10' W 123°55'0 0.0
2018-May-08 01:43N 46°10' W 123°55'0 0.0
2018-May-08 01:22N 46°10' W 123°55'0 0.0
2018-May-08 00:55N 46°10' W 123°55'0 0.0
2018-May-08 00:19N 46°10' W 123°55'0 0.0
2018-May-07 23:49N 46°10' W 123°55'0 0.0
2018-May-07 23:28N 46°10' W 123°55'0 0.0
2018-May-07 23:00N 46°10' W 123°55'0 0.0
2018-May-07 22:25N 46°10' W 123°55'0 0.0
2018-May-07 21:49N 46°10' W 123°55'0 0.0
2018-May-07 21:28N 46°10' W 123°55'0 0.0
2018-May-07 20:58N 46°10' W 123°55'0 0.0
2018-May-07 20:28N 46°10' W 123°55'  

Dump ship's entire track history